Time;durP1;ratioP1;P1;durP2;ratioP2;P2;SDS_P1;SDS_P2;PMS_P1;PMS_P2;Temp;Humidity;BMP_temperature;BMP_pressure;BME280_temperature;BME280_humidity;BME280_pressure;Samples;Min_cycle;Max_cycle;Signal;HPM_P1;HPM_P2
2022/11/25 00:09:28;;;;;;;23.23;3.05;;;;;;;;;;5039892;28;20040;-77
2022/11/25 00:11:54;;;;;;;22.60;3.63;;;;;;;;;;5038895;28;20033;-77
2022/11/25 00:14:21;;;;;;;22.13;3.45;;;;;;;;;;5033866;28;20025;-77
2022/11/25 00:16:47;;;;;;;23.33;2.97;;;;;;;;;;5034367;28;20369;-78
2022/11/25 00:19:13;;;;;;;25.55;3.35;;;;;;;;;;5018285;28;20087;-77
2022/11/25 00:21:39;;;;;;;15.75;3.15;;;;;;;;;;5014929;28;20027;-77
2022/11/25 00:24:06;;;;;;;19.42;3.03;;;;;;;;;;5014952;28;20084;-77
2022/11/25 00:26:33;;;;;;;19.63;2.63;;;;;;;;;;5014525;28;20038;-77
2022/11/25 00:29:00;;;;;;;24.02;3.42;;;;;;;;;;5014516;28;20529;-77
2022/11/25 00:31:27;;;;;;;27.25;3.05;;;;;;;;;;5031188;28;20029;-77
2022/11/25 00:33:54;;;;;;;23.33;2.90;;;;;;;;;;5034347;28;20034;-77
2022/11/25 00:59:11;;;;;;;23.73;4.05;;;;;;;;;;5017084;28;20038;-77
2022/11/25 01:01:38;;;;;;;21.67;4.03;;;;;;;;;;5020938;28;20033;-78
2022/11/25 01:04:05;;;;;;;21.73;3.67;;;;;;;;;;5015534;28;20018;-78
2022/11/25 01:06:31;;;;;;;24.95;3.97;;;;;;;;;;5033048;28;20111;-77
2022/11/25 01:08:57;;;;;;;28.35;3.95;;;;;;;;;;5033390;28;20381;-77
2022/11/25 01:11:23;;;;;;;30.70;4.30;;;;;;;;;;5042085;28;20037;-77
2022/11/25 01:13:50;;;;;;;21.63;3.90;;;;;;;;;;5015700;28;20039;-77
2022/11/25 01:16:19;;;;;;;25.42;3.90;;;;;;;;;;5033212;28;20037;-77
2022/11/25 01:18:49;;;;;;;22.48;3.40;;;;;;;;;;5033616;28;20025;-77
2022/11/25 01:31:20;;;;;;;28.58;4.15;;;;;;;;;;5012193;28;20042;-77
2022/11/25 01:33:47;;;;;;;18.67;3.50;;;;;;;;;;5021535;28;20029;-77
2022/11/25 01:36:14;;;;;;;16.55;3.15;;;;;;;;;;5016854;28;20034;-77
2022/11/25 01:38:40;;;;;;;20.50;4.15;;;;;;;;;;5016134;28;20025;-77
2022/11/25 01:41:07;;;;;;;23.38;3.47;;;;;;;;;;5033033;28;20770;-79
2022/11/25 01:43:33;;;;;;;23.08;4.18;;;;;;;;;;5032957;28;20029;-77
2022/11/25 01:46:18;;;;;;;25.83;3.55;;;;;;;;;;5015093;28;20095;-77
2022/11/25 01:48:49;;;;;;;16.42;3.22;;;;;;;;;;5032951;28;20025;-77
2022/11/25 01:51:23;;;;;;;28.17;3.40;;;;;;;;;;5026525;28;20026;-77
2022/11/25 01:53:50;;;;;;;20.65;3.67;;;;;;;;;;5013053;28;20038;-77
2022/11/25 01:56:16;;;;;;;30.48;4.93;;;;;;;;;;5012925;28;20041;-77
2022/11/25 01:58:43;;;;;;;24.08;3.63;;;;;;;;;;5040779;28;20098;-77
2022/11/25 02:01:09;;;;;;;22.50;3.75;;;;;;;;;;5052756;28;20021;-77
2022/11/25 02:03:38;;;;;;;15.25;3.50;;;;;;;;;;5052674;28;20441;-78
2022/11/25 02:06:04;;;;;;;25.98;5.25;;;;;;;;;;5052620;28;20391;-77
2022/11/25 02:08:30;;;;;;;25.95;4.85;;;;;;;;;;5052262;28;20446;-77
2022/11/25 02:10:57;;;;;;;24.38;4.05;;;;;;;;;;5052593;28;20032;-78
2022/11/25 02:13:23;;;;;;;19.52;3.65;;;;;;;;;;5052554;28;20108;-78
2022/11/25 02:15:50;;;;;;;20.98;4.60;;;;;;;;;;5052788;28;20122;-78
2022/11/25 02:18:16;;;;;;;17.38;3.85;;;;;;;;;;5047005;28;20022;-77
2022/11/25 02:20:42;;;;;;;18.23;3.53;;;;;;;;;;5032663;28;20071;-77
2022/11/25 02:23:11;;;;;;;27.45;3.47;;;;;;;;;;5004867;28;20026;-77
2022/11/25 02:25:38;;;;;;;29.65;3.03;;;;;;;;;;5017061;28;20109;-77
2022/11/25 02:28:07;;;;;;;20.52;3.50;;;;;;;;;;5016398;28;20048;-77
2022/11/25 02:30:33;;;;;;;19.23;2.83;;;;;;;;;;5056649;28;20028;-77
2022/11/25 02:33:00;;;;;;;22.95;3.83;;;;;;;;;;5031645;28;20368;-78
2022/11/25 02:35:40;;;;;;;25.02;3.75;;;;;;;;;;5019354;28;20388;-78
2022/11/25 02:38:11;;;;;;;29.45;3.92;;;;;;;;;;5036533;28;20060;-77
2022/11/25 02:40:41;;;;;;;25.13;3.75;;;;;;;;;;5036460;28;20033;-78
2022/11/25 02:43:07;;;;;;;15.88;2.95;;;;;;;;;;5036453;28;20013;-78
2022/11/25 02:45:56;;;;;;;17.40;3.28;;;;;;;;;;5036330;28;20029;-77
2022/11/25 02:48:23;;;;;;;22.02;3.15;;;;;;;;;;5028580;28;20037;-78
2022/11/25 02:50:49;;;;;;;19.25;3.13;;;;;;;;;;5036448;28;20025;-78
2022/11/25 02:53:16;;;;;;;22.90;3.35;;;;;;;;;;5036259;28;21424;-78
2022/11/25 02:55:42;;;;;;;30.20;4.30;;;;;;;;;;5035986;28;20057;-78
2022/11/25 02:58:08;;;;;;;22.23;3.67;;;;;;;;;;5045263;28;20021;-78
2022/11/25 03:00:34;;;;;;;22.50;3.38;;;;;;;;;;5056034;28;20029;-78
2022/11/25 03:03:00;;;;;;;27.80;3.72;;;;;;;;;;5055905;28;20025;-79
2022/11/25 03:05:27;;;;;;;22.25;3.17;;;;;;;;;;5031286;28;20133;-78
2022/11/25 03:07:53;;;;;;;24.02;3.40;;;;;;;;;;5018034;28;20076;-78
2022/11/25 03:10:19;;;;;;;23.35;3.47;;;;;;;;;;5017907;28;20084;-78
2022/11/25 03:12:45;;;;;;;28.88;3.60;;;;;;;;;;5035618;28;20391;-78
2022/11/25 03:15:11;;;;;;;22.85;3.70;;;;;;;;;;5018002;28;20060;-78
2022/11/25 03:17:37;;;;;;;22.67;3.58;;;;;;;;;;5035625;28;20032;-79
2022/11/25 03:20:04;;;;;;;25.02;4.35;;;;;;;;;;5017901;28;20026;-78
2022/11/25 03:22:30;;;;;;;18.88;4.10;;;;;;;;;;5035485;28;20025;-78
2022/11/25 03:24:56;;;;;;;16.77;3.15;;;;;;;;;;5035817;28;20055;-78
2022/11/25 03:27:23;;;;;;;19.08;3.97;;;;;;;;;;5035610;28;20044;-79
2022/11/25 03:29:49;;;;;;;25.70;3.72;;;;;;;;;;5017544;28;20045;-78
2022/11/25 03:32:15;;;;;;;32.25;4.32;;;;;;;;;;5016149;28;20435;-78
2022/11/25 03:34:41;;;;;;;29.58;4.20;;;;;;;;;;5025449;28;20040;-78
2022/11/25 03:37:07;;;;;;;20.88;3.60;;;;;;;;;;5014791;28;20030;-78
2022/11/25 03:39:33;;;;;;;28.80;3.78;;;;;;;;;;5015125;28;20097;-78
2022/11/25 03:41:59;;;;;;;22.20;3.72;;;;;;;;;;5014655;28;20018;-78
2022/11/25 03:44:25;;;;;;;21.08;3.63;;;;;;;;;;4997150;28;20033;-77
2022/11/25 03:46:51;;;;;;;22.60;3.83;;;;;;;;;;4997360;28;20034;-78
2022/11/25 03:49:17;;;;;;;15.85;4.47;;;;;;;;;;5014420;28;20488;-77
2022/11/25 03:51:44;;;;;;;17.25;3.97;;;;;;;;;;5024693;28;20057;-78
2022/11/25 03:54:10;;;;;;;21.65;3.47;;;;;;;;;;5032777;28;20041;-77
2022/11/25 03:56:36;;;;;;;23.30;4.60;;;;;;;;;;5032423;28;20029;-77
2022/11/25 03:59:02;;;;;;;18.33;3.72;;;;;;;;;;5033119;28;20028;-77
2022/11/25 04:01:28;;;;;;;22.48;4.00;;;;;;;;;;5033807;28;20021;-78
2022/11/25 04:03:54;;;;;;;22.50;3.88;;;;;;;;;;5033972;28;20079;-77
2022/11/25 04:06:22;;;;;;;23.30;3.50;;;;;;;;;;5033636;28;20030;-77
2022/11/25 04:08:48;;;;;;;17.05;3.58;;;;;;;;;;5033977;28;20029;-78
2022/11/25 04:11:14;;;;;;;14.70;3.30;;;;;;;;;;5034628;28;20429;-77
2022/11/25 04:13:40;;;;;;;14.85;2.92;;;;;;;;;;5034642;28;20056;-78
2022/11/25 04:16:06;;;;;;;15.88;3.33;;;;;;;;;;5034552;28;20053;-77
2022/11/25 04:18:32;;;;;;;16.17;3.33;;;;;;;;;;5017024;28;20029;-77
2022/11/25 04:20:58;;;;;;;22.52;4.68;;;;;;;;;;5017010;28;20116;-77
2022/11/25 04:23:24;;;;;;;14.15;2.63;;;;;;;;;;5034480;28;20037;-78
2022/11/25 04:25:50;;;;;;;16.17;3.05;;;;;;;;;;5034407;28;20025;-78
2022/11/25 04:28:17;;;;;;;16.98;3.30;;;;;;;;;;5016625;28;20029;-77
2022/11/25 04:30:43;;;;;;;18.42;3.13;;;;;;;;;;5034200;28;20025;-78
2022/11/25 04:33:09;;;;;;;14.40;2.75;;;;;;;;;;5033610;28;20029;-77
2022/11/25 04:35:35;;;;;;;16.10;2.90;;;;;;;;;;5033943;28;20026;-78
2022/11/25 04:38:01;;;;;;;19.55;2.60;;;;;;;;;;5034307;28;20021;-78
2022/11/25 04:40:27;;;;;;;9.02;2.50;;;;;;;;;;4998008;28;20385;-78
2022/11/25 04:42:53;;;;;;;13.88;3.30;;;;;;;;;;5014304;28;20034;-78
2022/11/25 04:45:19;;;;;;;7.22;1.80;;;;;;;;;;5013396;28;20080;-78
2022/11/25 04:47:45;;;;;;;18.30;2.85;;;;;;;;;;5014141;28;20072;-78
2022/11/25 04:50:17;;;;;;;14.30;1.90;;;;;;;;;;4996570;28;20365;-78
2022/11/25 04:52:43;;;;;;;10.55;1.60;;;;;;;;;;5033175;28;20025;-78
2022/11/25 04:55:09;;;;;;;13.38;1.90;;;;;;;;;;5034294;28;20112;-78
2022/11/25 04:57:36;;;;;;;11.35;2.50;;;;;;;;;;5033798;28;20021;-78
2022/11/25 05:00:02;;;;;;;9.80;1.92;;;;;;;;;;5034058;28;20029;-78
2022/11/25 05:02:28;;;;;;;12.70;2.10;;;;;;;;;;5017824;28;20105;-78
2022/11/25 05:04:55;;;;;;;9.02;1.90;;;;;;;;;;5015979;28;20054;-77
2022/11/25 05:07:23;;;;;;;10.07;1.85;;;;;;;;;;5033714;28;20045;-78
2022/11/25 05:09:49;;;;;;;5.93;2.00;;;;;;;;;;5033623;28;20032;-77
2022/11/25 05:12:19;;;;;;;6.90;1.60;;;;;;;;;;5016859;28;20037;-77
2022/11/25 05:14:45;;;;;;;11.55;1.48;;;;;;;;;;5020627;28;20036;-78
2022/11/25 05:17:16;;;;;;;12.70;1.52;;;;;;;;;;5030018;28;20033;-77
2022/11/25 05:19:42;;;;;;;13.00;2.75;;;;;;;;;;5013573;28;20088;-77
2022/11/25 05:22:16;;;;;;;14.80;1.58;;;;;;;;;;5023702;28;20029;-78
2022/11/25 05:24:42;;;;;;;13.57;1.73;;;;;;;;;;5015887;28;20038;-77
2022/11/25 05:27:08;;;;;;;8.82;1.60;;;;;;;;;;5015593;28;20495;-78
2022/11/25 05:29:34;;;;;;;12.07;2.00;;;;;;;;;;5030248;28;20025;-77
2022/11/25 05:32:00;;;;;;;13.05;1.90;;;;;;;;;;5017226;28;20418;-77
2022/11/25 05:34:26;;;;;;;9.73;2.00;;;;;;;;;;5018313;28;20526;-77
2022/11/25 05:36:52;;;;;;;7.10;2.45;;;;;;;;;;5016652;28;20037;-77
2022/11/25 05:39:18;;;;;;;8.27;1.50;;;;;;;;;;5017083;28;20036;-77
2022/11/25 05:41:45;;;;;;;9.10;1.55;;;;;;;;;;5015535;28;20025;-77
2022/11/25 05:44:11;;;;;;;13.02;2.05;;;;;;;;;;5033178;28;20079;-78
2022/11/25 05:46:37;;;;;;;12.30;2.10;;;;;;;;;;5027512;28;20025;-77
2022/11/25 05:49:03;;;;;;;16.95;2.08;;;;;;;;;;5033045;28;20029;-77
2022/11/25 05:51:30;;;;;;;10.63;2.00;;;;;;;;;;5027070;28;20029;-77
2022/11/25 05:53:56;;;;;;;9.10;1.77;;;;;;;;;;5032992;28;20033;-78
2022/11/25 05:56:23;;;;;;;9.10;1.67;;;;;;;;;;5027077;28;20391;-77
2022/11/25 05:58:49;;;;;;;7.47;1.70;;;;;;;;;;5025044;28;20377;-77
2022/11/25 06:01:15;;;;;;;11.35;2.03;;;;;;;;;;5012941;28;20022;-77
2022/11/25 06:03:42;;;;;;;9.45;2.00;;;;;;;;;;5016656;28;20021;-78
2022/11/25 06:06:09;;;;;;;9.77;1.90;;;;;;;;;;5032402;28;20026;-77
2022/11/25 06:08:36;;;;;;;10.68;1.73;;;;;;;;;;5032507;28;20507;-77
2022/11/25 06:11:08;;;;;;;11.65;2.33;;;;;;;;;;5032563;28;20091;-78
2022/11/25 06:13:34;;;;;;;13.65;2.90;;;;;;;;;;5023178;28;20497;-79
2022/11/25 06:16:06;;;;;;;6.85;2.25;;;;;;;;;;5028239;28;20033;-77
2022/11/25 06:18:32;;;;;;;10.43;2.00;;;;;;;;;;5012773;28;20018;-77
2022/11/25 06:20:58;;;;;;;8.45;1.90;;;;;;;;;;5012845;28;20376;-77
2022/11/25 06:23:25;;;;;;;11.45;1.98;;;;;;;;;;5024948;28;20499;-77
2022/11/25 06:25:52;;;;;;;6.90;1.80;;;;;;;;;;5032606;28;20029;-79
2022/11/25 06:28:18;;;;;;;9.48;2.03;;;;;;;;;;5032297;28;20040;-77
2022/11/25 06:30:44;;;;;;;9.55;2.33;;;;;;;;;;5032502;28;20032;-77
2022/11/25 06:33:10;;;;;;;7.40;1.67;;;;;;;;;;5024555;28;20030;-77
2022/11/25 06:35:36;;;;;;;12.68;2.05;;;;;;;;;;4995036;28;20125;-77
2022/11/25 06:38:02;;;;;;;11.65;2.00;;;;;;;;;;5012570;28;20037;-77
2022/11/25 06:40:28;;;;;;;6.45;1.80;;;;;;;;;;5031394;28;20376;-77
2022/11/25 06:42:54;;;;;;;8.70;2.00;;;;;;;;;;5014594;28;20552;-77
2022/11/25 06:45:20;;;;;;;7.95;1.77;;;;;;;;;;5032256;28;20124;-77
2022/11/25 06:47:46;;;;;;;10.73;2.17;;;;;;;;;;5032385;28;20076;-77
2022/11/25 06:50:12;;;;;;;5.72;1.77;;;;;;;;;;5032498;28;20037;-77
2022/11/25 06:52:38;;;;;;;9.85;2.42;;;;;;;;;;5013519;28;20026;-77
2022/11/25 06:55:05;;;;;;;5.30;2.00;;;;;;;;;;4995003;28;20124;-77
2022/11/25 06:57:31;;;;;;;11.57;2.47;;;;;;;;;;5012375;28;20070;-77
2022/11/25 06:59:57;;;;;;;12.07;2.05;;;;;;;;;;5012525;28;20034;-79
2022/11/25 07:02:23;;;;;;;9.30;2.40;;;;;;;;;;5012553;28;20475;-79
2022/11/25 07:04:49;;;;;;;10.07;2.45;;;;;;;;;;5013913;28;20477;-79
2022/11/25 07:07:15;;;;;;;8.38;2.30;;;;;;;;;;5014583;28;20064;-79
2022/11/25 07:09:41;;;;;;;5.38;2.10;;;;;;;;;;5034971;28;20476;-79
2022/11/25 07:12:07;;;;;;;8.52;2.42;;;;;;;;;;5035838;28;20036;-77
2022/11/25 07:14:33;;;;;;;9.35;2.30;;;;;;;;;;5035627;28;20029;-77
2022/11/25 07:16:59;;;;;;;11.63;2.55;;;;;;;;;;5030994;28;20029;-77
2022/11/25 07:19:25;;;;;;;8.23;2.47;;;;;;;;;;5015726;28;20029;-79
2022/11/25 07:21:51;;;;;;;13.38;3.03;;;;;;;;;;5027172;28;20136;-79
2022/11/25 07:24:17;;;;;;;8.13;2.50;;;;;;;;;;5035492;28;20040;-79
2022/11/25 07:26:43;;;;;;;9.20;2.88;;;;;;;;;;5035271;28;20032;-79
2022/11/25 07:29:12;;;;;;;9.63;2.97;;;;;;;;;;5035249;28;20056;-79
2022/11/25 07:31:39;;;;;;;13.13;3.08;;;;;;;;;;5034884;28;20033;-79
2022/11/25 07:34:18;;;;;;;11.73;2.75;;;;;;;;;;5034297;28;20036;-79
2022/11/25 07:36:44;;;;;;;9.73;2.70;;;;;;;;;;5035469;28;20026;-79
2022/11/25 07:39:12;;;;;;;12.73;2.80;;;;;;;;;;5035144;28;20468;-79
2022/11/25 07:41:39;;;;;;;9.32;2.78;;;;;;;;;;5035055;28;20017;-78
2022/11/25 07:44:07;;;;;;;9.13;3.13;;;;;;;;;;5035208;28;20018;-78
2022/11/25 07:46:34;;;;;;;9.15;2.60;;;;;;;;;;5035020;28;20053;-79
2022/11/25 07:49:02;;;;;;;11.95;3.20;;;;;;;;;;5035086;28;20022;-78
2022/11/25 07:51:30;;;;;;;8.00;2.70;;;;;;;;;;5034990;28;20412;-79
2022/11/25 07:53:56;;;;;;;9.40;3.10;;;;;;;;;;5034881;28;20392;-79
2022/11/25 07:56:22;;;;;;;9.27;2.88;;;;;;;;;;5034643;28;20030;-78
2022/11/25 07:58:48;;;;;;;15.35;3.58;;;;;;;;;;5034773;28;20033;-78
2022/11/25 08:01:15;;;;;;;10.40;3.75;;;;;;;;;;5035101;28;20120;-78
2022/11/25 08:03:46;;;;;;;14.48;3.67;;;;;;;;;;5034907;28;20017;-78
2022/11/25 08:06:13;;;;;;;9.60;3.05;;;;;;;;;;5031820;28;20090;-79
2022/11/25 08:08:40;;;;;;;17.92;4.43;;;;;;;;;;5021794;28;20046;-78
2022/11/25 08:11:11;;;;;;;15.82;3.97;;;;;;;;;;5022030;28;20080;-78
2022/11/25 08:13:38;;;;;;;14.15;4.10;;;;;;;;;;5014329;28;20122;-79
2022/11/25 08:16:04;;;;;;;10.50;4.05;;;;;;;;;;5009656;28;20361;-78
2022/11/25 08:18:30;;;;;;;16.00;4.30;;;;;;;;;;5022610;28;20026;-78
2022/11/25 08:21:00;;;;;;;14.38;4.32;;;;;;;;;;5000456;28;20025;-78
2022/11/25 08:23:26;;;;;;;11.60;3.55;;;;;;;;;;5016391;28;20117;-78
2022/11/25 08:25:52;;;;;;;10.63;3.30;;;;;;;;;;5034226;28;20796;-78
2022/11/25 08:28:18;;;;;;;15.68;3.72;;;;;;;;;;5013756;28;20034;-78
2022/11/25 08:30:44;;;;;;;12.73;4.05;;;;;;;;;;5016185;28;20033;-78
2022/11/25 08:33:10;;;;;;;12.98;4.05;;;;;;;;;;5029733;28;20036;-78
2022/11/25 08:35:36;;;;;;;13.48;4.28;;;;;;;;;;5019275;28;20088;-78
2022/11/25 08:38:07;;;;;;;14.57;4.75;;;;;;;;;;5048593;28;20028;-79
2022/11/25 08:40:34;;;;;;;11.45;4.05;;;;;;;;;;5021721;28;20045;-79
2022/11/25 08:43:01;;;;;;;16.23;4.22;;;;;;;;;;5014179;28;20030;-79
2022/11/25 08:45:27;;;;;;;18.77;4.65;;;;;;;;;;5016960;28;20018;-79
2022/11/25 08:47:53;;;;;;;14.43;4.22;;;;;;;;;;4996596;28;20029;-79
2022/11/25 08:50:19;;;;;;;14.98;4.75;;;;;;;;;;5004320;28;20472;-79
2022/11/25 08:52:46;;;;;;;17.92;4.43;;;;;;;;;;5015957;28;20017;-78
2022/11/25 08:55:12;;;;;;;14.65;4.30;;;;;;;;;;5032321;28;20033;-78
2022/11/25 08:57:38;;;;;;;14.77;4.20;;;;;;;;;;5014207;28;20116;-79
2022/11/25 09:00:05;;;;;;;9.93;3.88;;;;;;;;;;5013940;28;20369;-78
2022/11/25 09:02:31;;;;;;;14.75;4.47;;;;;;;;;;5013686;28;20029;-78
2022/11/25 09:04:57;;;;;;;16.45;4.50;;;;;;;;;;5015547;28;20034;-78
2022/11/25 09:07:23;;;;;;;14.23;4.60;;;;;;;;;;5033323;28;20046;-79
2022/11/25 09:09:50;;;;;;;12.02;4.40;;;;;;;;;;5032394;28;20025;-78
2022/11/25 09:12:16;;;;;;;17.55;5.05;;;;;;;;;;5015954;28;20030;-78
2022/11/25 09:14:42;;;;;;;15.15;4.40;;;;;;;;;;5033297;28;20017;-79
2022/11/25 09:17:11;;;;;;;15.65;4.65;;;;;;;;;;5033240;28;20083;-79
2022/11/25 09:19:37;;;;;;;18.33;4.93;;;;;;;;;;5021964;28;20109;-79
2022/11/25 09:22:03;;;;;;;16.58;4.40;;;;;;;;;;5027683;28;20018;-79
2022/11/25 09:24:29;;;;;;;12.07;4.03;;;;;;;;;;5026119;28;20037;-79
2022/11/25 09:26:56;;;;;;;13.35;4.10;;;;;;;;;;5004957;28;20488;-78
2022/11/25 09:29:22;;;;;;;14.77;3.75;;;;;;;;;;4998759;28;20396;-79
2022/11/25 09:31:49;;;;;;;14.02;4.22;;;;;;;;;;5031061;28;20444;-79
2022/11/25 09:34:15;;;;;;;10.90;3.25;;;;;;;;;;5032352;28;20087;-79
2022/11/25 09:36:41;;;;;;;11.80;4.05;;;;;;;;;;5027444;28;20026;-79
2022/11/25 09:39:07;;;;;;;13.05;3.58;;;;;;;;;;5023948;28;20025;-78
2022/11/25 09:47:26;;;;;;;11.70;3.03;;;;;;;;;;5033078;28;20040;-78
2022/11/25 09:49:58;;;;;;;10.20;2.88;;;;;;;;;;5032824;28;20103;-78
2022/11/25 09:52:24;;;;;;;8.40;2.70;;;;;;;;;;4997402;28;20485;-78
2022/11/25 09:54:51;;;;;;;10.50;2.67;;;;;;;;;;5013692;28;20038;-78
2022/11/25 09:57:25;;;;;;;11.05;3.53;;;;;;;;;;5012965;28;20030;-79
2022/11/25 09:59:57;;;;;;;9.35;2.55;;;;;;;;;;5012789;28;20101;-78
2022/11/25 10:02:38;;;;;;;8.13;2.70;;;;;;;;;;5012759;28;20022;-78
2022/11/25 10:05:23;;;;;;;11.52;3.10;;;;;;;;;;5016291;28;20028;-78
2022/11/25 10:07:52;;;;;;;9.15;3.10;;;;;;;;;;5031814;28;20046;-78
2022/11/25 10:10:29;;;;;;;9.55;3.05;;;;;;;;;;5031994;28;20519;-78
2022/11/25 10:12:57;;;;;;;8.73;2.92;;;;;;;;;;5032334;28;20108;-78
2022/11/25 10:15:28;;;;;;;11.85;3.10;;;;;;;;;;5032252;28;20032;-78
2022/11/25 10:17:56;;;;;;;9.77;3.63;;;;;;;;;;5032322;28;20022;-78
2022/11/25 10:20:22;;;;;;;11.60;3.45;;;;;;;;;;5032220;28;20029;-78
2022/11/25 10:22:54;;;;;;;11.65;3.20;;;;;;;;;;5032268;28;20025;-78
2022/11/25 10:25:22;;;;;;;11.65;3.40;;;;;;;;;;5032398;28;20121;-77
2022/11/25 10:27:56;;;;;;;14.00;2.80;;;;;;;;;;5013932;28;20040;-78
2022/11/25 10:30:26;;;;;;;18.67;4.05;;;;;;;;;;5015549;28;20022;-78
2022/11/25 10:32:58;;;;;;;14.65;3.83;;;;;;;;;;5021898;28;20017;-78
2022/11/25 10:35:31;;;;;;;9.73;3.17;;;;;;;;;;5018021;28;20445;-78
2022/11/25 10:37:57;;;;;;;;;;;;;;;;;;5020721;28;20503;-78
2022/11/25 10:40:23;;;;;;;10.50;3.17;;;;;;;;;;5027604;28;19940;-78
2022/11/25 10:42:49;;;;;;;11.10;3.40;;;;;;;;;;5012195;28;20062;-78
2022/11/25 10:45:15;;;;;;;10.13;3.40;;;;;;;;;;5031435;28;20036;-78
2022/11/25 10:47:56;;;;;;;11.52;3.20;;;;;;;;;;5021175;28;20034;-78
2022/11/25 10:50:41;;;;;;;13.05;3.47;;;;;;;;;;5033656;28;20022;-78
2022/11/25 10:53:20;;;;;;;16.92;3.38;;;;;;;;;;5026549;28;20028;-78
2022/11/25 10:55:57;;;;;;;11.73;3.28;;;;;;;;;;5023361;28;20026;-78
2022/11/25 10:58:28;;;;;;;15.95;3.38;;;;;;;;;;5010851;28;20033;-77
2022/11/25 11:01:05;;;;;;;12.57;3.60;;;;;;;;;;5028861;28;20049;-79
2022/11/25 11:03:32;;;;;;;18.42;3.67;;;;;;;;;;5023054;28;20033;-77
2022/11/25 11:05:58;;;;;;;13.63;3.45;;;;;;;;;;5029869;28;20104;-78
2022/11/25 11:08:26;;;;;;;14.82;3.40;;;;;;;;;;5021989;28;20061;-77
2022/11/25 11:11:19;;;;;;;10.35;3.22;;;;;;;;;;5017276;28;20052;-77
2022/11/25 11:13:45;;;;;;;14.90;4.13;;;;;;;;;;5032172;28;20468;-77
2022/11/25 11:16:29;;;;;;;18.08;3.63;;;;;;;;;;5027953;28;20018;-77
2022/11/25 11:18:55;;;;;;;14.25;3.10;;;;;;;;;;5028469;28;20028;-79
2022/11/25 11:21:29;;;;;;;10.68;3.40;;;;;;;;;;5025693;28;20154;-79
2022/11/25 11:23:56;;;;;;;14.25;3.25;;;;;;;;;;5028969;28;20029;-79
2022/11/25 11:26:22;;;;;;;7.78;3.00;;;;;;;;;;5013738;28;20506;-79
2022/11/25 11:28:48;;;;;;;9.25;2.78;;;;;;;;;;5031532;28;20036;-79
2022/11/25 11:31:18;;;;;;;11.55;3.58;;;;;;;;;;5035247;28;20034;-80
2022/11/25 11:33:44;;;;;;;14.30;3.00;;;;;;;;;;5003998;28;20033;-79
2022/11/25 11:36:10;;;;;;;17.60;3.28;;;;;;;;;;5033524;28;20036;-79
2022/11/25 11:38:41;;;;;;;18.55;3.47;;;;;;;;;;5029471;28;20096;-81
2022/11/25 11:41:18;;;;;;;13.60;3.63;;;;;;;;;;5015100;28;20433;-79
2022/11/25 11:43:44;;;;;;;14.45;3.33;;;;;;;;;;5014543;28;20423;-79
2022/11/25 11:46:29;;;;;;;13.15;4.05;;;;;;;;;;5013959;28;20030;-79
2022/11/25 11:49:10;;;;;;;17.55;2.97;;;;;;;;;;5014740;28;20038;-80
2022/11/25 11:51:42;;;;;;;13.80;2.83;;;;;;;;;;5005092;28;20416;-80
2022/11/25 11:54:24;;;;;;;14.45;2.75;;;;;;;;;;5014396;28;20048;-79
2022/11/25 11:56:59;;;;;;;14.85;3.15;;;;;;;;;;5013235;28;20033;-79
2022/11/25 11:59:45;;;;;;;17.08;3.33;;;;;;;;;;5013243;28;20026;-79
2022/11/25 12:02:14;;;;;;;11.60;3.05;;;;;;;;;;5014588;28;20026;-79
2022/11/25 12:04:42;;;;;;;12.05;2.75;;;;;;;;;;5014475;28;20040;-79
2022/11/25 12:07:18;;;;;;;10.73;2.80;;;;;;;;;;5034117;28;20048;-79
2022/11/25 12:09:47;;;;;;;10.68;2.55;;;;;;;;;;5016434;28;20083;-79
2022/11/25 12:12:16;;;;;;;13.65;2.40;;;;;;;;;;5034186;28;20106;-79
2022/11/25 12:14:44;;;;;;;14.65;3.03;;;;;;;;;;5016659;28;20045;-79
2022/11/25 12:17:16;;;;;;;20.85;3.33;;;;;;;;;;5033871;28;20025;-79
2022/11/25 12:19:51;;;;;;;14.73;2.80;;;;;;;;;;5034006;28;20044;-79
2022/11/25 12:22:19;;;;;;;17.92;2.95;;;;;;;;;;5016087;28;20025;-79
2022/11/25 12:25:01;;;;;;;12.75;2.78;;;;;;;;;;5033848;28;20030;-79
2022/11/25 12:27:31;;;;;;;15.23;2.58;;;;;;;;;;5033759;28;20034;-79
2022/11/25 12:30:01;;;;;;;17.30;2.50;;;;;;;;;;5033614;28;20021;-79
2022/11/25 12:32:27;;;;;;;10.98;2.00;;;;;;;;;;5029933;28;20041;-79
2022/11/25 12:34:59;;;;;;;15.27;2.53;;;;;;;;;;5010927;28;20037;-79
2022/11/25 12:37:25;;;;;;;;;;;;;;;;;;5034199;28;20033;-79
2022/11/25 12:39:56;;;;;;;14.80;2.50;;;;;;;;;;5018329;28;19932;-79
2022/11/25 12:42:24;;;;;;;18.20;2.47;;;;;;;;;;5013816;28;20032;-79
2022/11/25 12:44:50;;;;;;;13.00;2.55;;;;;;;;;;5013982;28;20144;-79
2022/11/25 12:47:17;;;;;;;12.15;2.10;;;;;;;;;;5013897;28;20480;-79
2022/11/25 12:49:44;;;;;;;13.70;3.10;;;;;;;;;;5013595;28;20034;-79
2022/11/25 12:52:15;;;;;;;14.73;2.33;;;;;;;;;;5009158;28;20421;-79
2022/11/25 12:55:00;;;;;;;14.25;2.05;;;;;;;;;;5012140;28;20028;-79
2022/11/25 12:57:44;;;;;;;13.13;2.22;;;;;;;;;;5013507;28;20030;-79
2022/11/25 13:00:23;;;;;;;13.95;2.30;;;;;;;;;;5013627;28;20524;-79
2022/11/25 13:03:01;;;;;;;14.93;2.35;;;;;;;;;;5013419;28;20555;-79
2022/11/25 13:05:30;;;;;;;15.18;2.55;;;;;;;;;;5018668;28;20379;-79
2022/11/25 13:07:56;;;;;;;12.00;1.90;;;;;;;;;;5032582;28;20045;-78
2022/11/25 13:10:26;;;;;;;15.32;2.85;;;;;;;;;;5015157;28;20033;-79
2022/11/25 13:12:58;;;;;;;15.88;2.40;;;;;;;;;;5033182;28;20018;-79
2022/11/25 13:15:29;;;;;;;14.43;2.30;;;;;;;;;;5033187;28;20083;-79
2022/11/25 13:18:02;;;;;;;15.63;2.17;;;;;;;;;;5033283;28;20037;-79
2022/11/25 13:20:28;;;;;;;11.57;1.90;;;;;;;;;;5033148;28;20057;-78
2022/11/25 13:23:01;;;;;;;13.40;2.13;;;;;;;;;;5019594;28;20491;-79
2022/11/25 13:25:31;;;;;;;13.75;3.28;;;;;;;;;;5013180;28;20098;-79
2022/11/25 13:27:59;;;;;;;16.25;2.70;;;;;;;;;;5013103;28;20018;-79
2022/11/25 13:30:38;;;;;;;14.27;2.78;;;;;;;;;;5013102;28;20064;-76
2022/11/25 13:33:11;;;;;;;13.43;2.47;;;;;;;;;;5023219;28;20033;-77
2022/11/25 13:35:46;;;;;;;21.13;2.85;;;;;;;;;;5015328;28;20022;-75
2022/11/25 13:38:30;;;;;;;10.18;2.08;;;;;;;;;;5018335;28;20080;-76
2022/11/25 13:41:01;;;;;;;14.20;2.72;;;;;;;;;;5010781;28;20087;-77
2022/11/25 13:43:27;;;;;;;15.10;2.60;;;;;;;;;;5024153;28;20025;-77
2022/11/25 13:45:54;;;;;;;13.93;3.72;;;;;;;;;;5018435;28;20108;-76
2022/11/25 13:48:21;;;;;;;10.32;2.50;;;;;;;;;;5017426;28;20037;-76
2022/11/25 13:50:49;;;;;;;14.25;2.17;;;;;;;;;;5018361;28;20017;-76
2022/11/25 13:53:28;;;;;;;17.23;2.00;;;;;;;;;;5028087;28;20415;-76
2022/11/25 13:56:11;;;;;;;21.30;2.20;;;;;;;;;;5023722;28;20041;-76
2022/11/25 13:58:37;;;;;;;17.60;2.17;;;;;;;;;;5028187;28;20384;-77
2022/11/25 14:01:22;;;;;;;13.48;2.13;;;;;;;;;;5028274;28;20464;-75
2022/11/25 14:03:49;;;;;;;16.50;2.03;;;;;;;;;;5022723;28;20527;-76
2022/11/25 14:06:15;;;;;;;13.07;1.90;;;;;;;;;;5010847;28;20046;-75
2022/11/25 14:08:53;;;;;;;14.25;2.22;;;;;;;;;;5020592;28;20092;-75
2022/11/25 14:11:25;;;;;;;15.88;1.90;;;;;;;;;;5020622;28;20135;-75
2022/11/25 14:13:54;;;;;;;24.00;3.88;;;;;;;;;;5003650;28;20369;-75
2022/11/25 14:16:23;;;;;;;17.65;2.25;;;;;;;;;;5004723;28;20038;-76
2022/11/25 14:19:10;;;;;;;20.42;2.90;;;;;;;;;;5018445;28;20022;-76
2022/11/25 14:21:57;;;;;;;17.85;2.08;;;;;;;;;;5026888;28;20045;-76
2022/11/25 14:24:32;;;;;;;12.23;1.77;;;;;;;;;;5027907;28;20033;-76
2022/11/25 14:26:59;;;;;;;9.98;1.80;;;;;;;;;;5025771;28;20067;-76
2022/11/25 14:29:31;;;;;;;13.43;2.00;;;;;;;;;;5025213;28;20515;-76
2022/11/25 14:32:00;;;;;;;20.50;2.42;;;;;;;;;;5026603;28;20710;-76
2022/11/25 14:34:37;;;;;;;20.08;2.78;;;;;;;;;;5024071;28;20029;-77
2022/11/25 14:37:13;;;;;;;15.40;2.13;;;;;;;;;;5022839;28;20037;-76
2022/11/25 14:39:39;;;;;;;10.65;1.92;;;;;;;;;;5031906;28;20022;-76
2022/11/25 14:42:10;;;;;;;14.85;2.50;;;;;;;;;;5027236;28;20022;-76
2022/11/25 14:44:44;;;;;;;13.45;2.13;;;;;;;;;;5027393;28;20041;-76
2022/11/25 14:47:10;;;;;;;14.02;2.13;;;;;;;;;;5006492;28;20026;-76
2022/11/25 14:49:42;;;;;;;15.10;2.28;;;;;;;;;;5017800;28;20116;-83
2022/11/25 14:52:09;;;;;;;12.70;2.53;;;;;;;;;;5024531;28;20022;-76
2022/11/25 14:54:40;;;;;;;15.98;2.10;;;;;;;;;;5006928;28;20030;-76
2022/11/25 14:57:06;;;;;;;15.68;2.28;;;;;;;;;;5027482;28;20157;-77
2022/11/25 14:59:34;;;;;;;13.00;2.15;;;;;;;;;;5015145;28;20041;-75
2022/11/25 15:02:00;;;;;;;13.07;2.70;;;;;;;;;;5015622;28;20101;-76
2022/11/25 15:04:26;;;;;;;13.35;2.33;;;;;;;;;;5004326;28;20029;-76
2022/11/25 15:06:59;;;;;;;16.92;2.50;;;;;;;;;;5030759;28;20032;-76
2022/11/25 15:09:27;;;;;;;19.83;3.08;;;;;;;;;;5016422;28;20062;-76
2022/11/25 15:11:57;;;;;;;19.42;2.95;;;;;;;;;;5020166;28;20048;-76
2022/11/25 15:14:25;;;;;;;17.00;3.13;;;;;;;;;;5008295;28;20029;-76
2022/11/25 15:16:51;;;;;;;13.80;2.05;;;;;;;;;;5024650;28;20546;-76
2022/11/25 15:19:19;;;;;;;16.88;2.75;;;;;;;;;;5006371;28;20038;-76
2022/11/25 15:21:46;;;;;;;16.60;2.70;;;;;;;;;;5029150;28;20021;-76
2022/11/25 15:24:29;;;;;;;24.80;3.60;;;;;;;;;;5004483;28;20080;-77
2022/11/25 15:26:56;;;;;;;18.73;3.50;;;;;;;;;;5025348;28;20029;-76
2022/11/25 15:29:25;;;;;;;22.77;3.05;;;;;;;;;;5005075;28;20030;-76